Mc Clellan Airfield
KMCC : now visible

Airfield :











YOU CAN JOIN US ON...

 
LOGIN :

Register | Disclaimer

   EN    FR    IT 

 









Legend :    VFR   Marginal VFR   IFR   Intensive IFR   Very Intensive IFR
Visi :
Ceiling :
>= 8 km
>= 3000ft
5 to 8 km
1000 to 3000 ft
1500m to 5 km
500 to 1000 ft
800 to 1500m
200 to 500 ft
< 800m
< 200 ft
Symbols :   Thunderstorms  Fog  Heavy snow  Heavy precipitations  Wind > 20 kt







- Airport Elevation : 77 ft


KMCC - Mc Clellan

CURRENT METAR :
  • 211100Z AUTO 16009KT 9SM OVC060 12/10 A2991 RMK AO2

EXPIRED METARs :
  • 211040Z AUTO 16011KT 10SM FEW005 SCT021 OVC055 12/10 A2990 RMK AO2
  • 211020Z AUTO 16009G15KT 10SM BKN019 BKN024 OVC033 13/09 A2992 RMK AO2
  • 211000Z AUTO 18008KT 9SM BKN018 OVC033 13/09 A2991 RMK AO2
  • 210940Z AUTO 19013KT 10SM OVC017 13/09 A2992 RMK AO2
  • 210920Z AUTO 16011KT 10SM OVC022 13/09 A2992 RMK AO2
  • 210900Z AUTO 17007G13KT 9SM BKN022 OVC035 13/09 A2992 RMK AO2
  • 210840Z AUTO 19011G18KT 9SM BKN021 BKN032 OVC060 13/09 A2993 RMK AO2
  • 210820Z AUTO 20010KT 9SM OVC021 13/09 A2993 RMK AO2
  • 210800Z AUTO 17008G13KT 10SM BKN023 BKN030 OVC060 13/09 A2994 RMK AO2

TAF KMCC
Valid from the 21 at 06:00 until the 22 at 06:00 UTC


210525Z 2106/2206 19012KT P6SM SCT250
FM210800 17008KT P6SM VCSH BKN050
FM211000 16010KT P6SM -SHRA OVC035
FM212100 18011KT P6SM VCTS SCT025CB BKN035
TEMPO 2121/2201 3SM SHRAGS OVC025
FM220300 21011KT P6SM BKN050
KZOA FIR / North America



MET'MAP, your aeronautical weather chart ! - Copyright ORBIFLY December 2007 - Disclaimer

ORBIFLY MET'MAP TEAM :

Programming & Development : Alexandra Zaïnal
Concept & Development : Baudouin d'Aumeries
Co-Development & Prog : Marc-Olivier Méhu
Technical & hardware support : Manuel Goepfert

Contact : metmap@orbifly.com




SOURCES & CREDITS :

   NOAA       Earth
Advisory